Portada
METAR-TAF:

METAR-TAF

Aeroports :

Akureyri, Islàndia

latitud: 65-41N, longitud: 018-05W, altitud: 23 m

Observació

L'informe es va fer fa 25 minuts, a les 19:00 UTC
Vent 13 kt del Est/Sud-Est
Temperatura 11°C
Humitat 66%
Pressió 998 hPa
Visibilitat 10 km o més
Escasses núvols a una alçada de 5400 ft
Cel ennuvolat a una alçada de 6900 ft
plugim

METAR: BIAR 171900Z 12013KT 9999 -DZ FEW054 BKN069 11/05 Q0998

Hora: 19:25 (19:25 UTC)

Pronòstic

L'informe es va fer fa 2 hores i 55 minuts, a les 16:30 UTC
Pronòstic vàlid del 17 a les 18 UTC al 18 a les 18 UTC
Vent 8 kt del Sud/Sud-Oest
Visibilitat 10 km o més
Núvols disperses a una alçada de 5000 ft

TAF: BIAR 171630Z 1718/1818 20008KT 9999 SCT050 TX13/1718Z TN04/1805Z

Observacions i pronòstics meteorològics de més de 4000 aeroports (METAR i TAF).

Les estacions disponibles són els punts grocs i vermells al mapa.

Posi el ratolí al punt desitjat per veure el nom de l'estació.

Feu clic per veure les observacions i els pronòstics meteorològics.

Per canviar el mapa: feu clic els botons verds amb una creu de color negre per apropar; al botó verd amb un guió per allunyar la imatge; o en les fletxes verdes per a mapes adjacents.


METAR-TAF: